Time;durP1;ratioP1;P1;durP2;ratioP2;P2;SDS_P1;SDS_P2;PMS_P1;PMS_P2;Temp;Humidity;BMP_temperature;BMP_pressure;BME280_temperature;BME280_humidity;BME280_pressure;Samples;Min_cycle;Max_cycle;Signal;HPM_P1;HPM_P2
2022/10/18 00:00:37;;;;;;;6.37;2.30;;;;;;;-145.69;100.00;52422.59;5053598;28;20207;-83
2022/10/18 00:03:03;;;;;;;6.60;1.97;;;;;;;-145.69;100.00;52408.75;5035071;28;20204;-84
2022/10/18 00:05:30;;;;;;;7.22;1.70;;;;;;;-145.69;100.00;52434.47;5035173;28;20200;-84
2022/10/18 00:07:58;;;;;;;3.87;2.23;;;;;;;-145.69;100.00;52404.78;5034945;28;20243;-83
2022/10/18 00:10:25;;;;;;;5.40;1.63;;;;;;;-145.69;100.00;52410.72;5035469;28;20532;-84
2022/10/18 00:12:51;;;;;;;4.87;2.13;;;;;;;-145.69;100.00;52404.78;5034709;28;20210;-83
2022/10/18 00:15:18;;;;;;;8.50;1.85;;;;;;;-145.69;100.00;52402.78;5034585;28;20207;-82
2022/10/18 00:17:45;;;;;;;8.23;1.60;;;;;;;-145.69;100.00;52444.38;5034247;28;20228;-83
2022/10/18 00:20:12;;;;;;;7.57;1.90;;;;;;;-145.69;100.00;52379.03;5034543;28;20945;-83
2022/10/18 00:22:40;;;;;;;11.25;2.30;;;;;;;-145.69;100.00;52394.88;5034481;28;20559;-83
2022/10/18 00:25:10;;;;;;;6.90;1.65;;;;;;;-145.69;100.00;52412.69;5040405;28;20202;-83
2022/10/18 00:27:36;;;;;;;4.17;1.97;;;;;;;-145.69;100.00;52424.59;5054249;28;20720;-83
2022/10/18 00:30:03;;;;;;;7.78;1.80;;;;;;;-145.69;100.00;52408.75;5054501;28;20203;-83
2022/10/18 00:32:30;;;;;;;5.22;1.92;;;;;;;-145.69;100.00;52426.56;5054556;28;20203;-82
2022/10/18 00:34:56;;;;;;;5.47;1.60;;;;;;;-145.69;100.00;52420.63;5053835;28;20223;-83
2022/10/18 00:37:23;;;;;;;5.57;1.88;;;;;;;-145.69;100.00;52406.75;5053619;28;20227;-82
2022/10/18 00:39:49;;;;;;;6.57;2.33;;;;;;;-145.69;100.00;52414.69;5053789;28;20226;-84
2022/10/18 00:42:19;;;;;;;4.20;1.80;;;;;;;-145.69;100.00;52377.06;5054003;28;20206;-83
2022/10/18 00:45:07;;;;;;;6.17;1.90;;;;;;;-145.69;100.00;52406.75;5054363;28;20210;-84
2022/10/18 00:47:35;;;;;;;8.63;1.50;;;;;;;-145.69;100.00;52396.84;5053777;28;20203;-84
2022/10/18 00:50:05;;;;;;;10.45;2.28;;;;;;;-145.69;100.00;52404.78;5053906;28;20222;-84
2022/10/18 00:52:39;;;;;;;6.93;2.22;;;;;;;-145.69;100.00;52440.44;5035879;28;20195;-84
2022/10/18 00:55:06;;;;;;;5.13;2.00;;;;;;;-145.69;100.00;52402.78;5053725;28;20570;-84
2022/10/18 00:57:35;;;;;;;3.53;1.90;;;;;;;-145.69;100.00;52424.59;5040623;28;20303;-84
2022/10/18 01:00:06;;;;;;;3.25;1.50;;;;;;;-145.69;100.00;52383.00;5033784;28;20204;-82
2022/10/18 01:02:33;;;;;;;10.18;2.20;;;;;;;-145.69;100.00;52404.78;5032016;28;20476;-83
2022/10/18 01:04:59;;;;;;;7.15;1.90;;;;;;;-145.69;100.00;52412.69;5033347;28;20208;-82
2022/10/18 01:07:41;;;;;;;7.13;1.98;;;;;;;-145.69;100.00;52418.63;5033693;28;20291;-83
2022/10/18 01:10:23;;;;;;;8.65;1.95;;;;;;;-145.69;100.00;52392.91;5033670;28;20196;-83
2022/10/18 01:13:03;;;;;;;3.90;1.60;;;;;;;-145.69;100.00;52400.81;5033703;28;20202;-84
2022/10/18 01:15:34;;;;;;;6.80;1.55;;;;;;;-145.69;100.00;52402.78;5033730;28;20204;-85
2022/10/18 01:18:07;;;;;;;7.70;1.60;;;;;;;-145.69;100.00;52406.75;5033510;28;20247;-84
2022/10/18 01:20:54;;;;;;;7.88;1.73;;;;;;;-145.69;100.00;52388.94;5033530;28;20204;-83
2022/10/18 01:23:35;;;;;;;8.05;1.83;;;;;;;-145.69;100.00;52396.84;5033200;28;20655;-83
2022/10/18 01:26:15;;;;;;;6.18;1.50;;;;;;;-145.69;100.00;52444.38;5044554;28;20246;-84
2022/10/18 01:28:56;;;;;;;10.00;1.90;;;;;;;-145.69;100.00;52396.84;5053553;28;20249;-84
2022/10/18 01:31:30;;;;;;;5.32;1.90;;;;;;;-145.69;100.00;52412.69;5053287;28;20543;-84
2022/10/18 01:33:59;;;;;;;7.03;1.88;;;;;;;-145.69;100.00;52416.66;5053238;28;20230;-85
2022/10/18 01:36:31;;;;;;;17.15;2.33;;;;;;;-145.69;100.00;52377.06;5053546;28;20206;-83
2022/10/18 01:39:01;;;;;;;11.25;2.13;;;;;;;-145.69;100.00;52400.81;5053084;28;20203;-82
2022/10/18 01:41:29;;;;;;;17.50;2.25;;;;;;;-145.69;100.00;52384.97;5052951;28;20210;-82
2022/10/18 01:43:58;;;;;;;11.90;1.88;;;;;;;-145.69;100.00;52377.06;5052977;28;20253;-83
2022/10/18 01:46:28;;;;;;;3.40;1.83;;;;;;;-145.69;100.00;52416.66;5052711;28;20204;-85
2022/10/18 01:48:56;;;;;;;6.40;1.60;;;;;;;-145.69;100.00;52404.78;5053380;28;20218;-83
2022/10/18 01:51:25;;;;;;;7.18;1.73;;;;;;;-145.69;100.00;52388.94;5040017;28;20200;-84
2022/10/18 01:53:52;;;;;;;6.38;1.70;;;;;;;-145.69;100.00;52422.59;5033569;28;20215;-84
2022/10/18 01:56:25;;;;;;;5.53;1.75;;;;;;;-145.69;100.00;52404.78;5033227;28;20721;-85
2022/10/18 01:59:06;;;;;;;3.80;1.55;;;;;;;-145.69;100.00;52398.84;5032003;28;20287;-84
2022/10/18 02:01:43;;;;;;;5.85;1.70;;;;;;;-145.69;100.00;52388.94;5032387;28;20196;-85
2022/10/18 02:04:19;;;;;;;8.23;1.80;;;;;;;-145.69;100.00;52396.84;5038714;28;20198;-84
2022/10/18 02:06:51;;;;;;;4.18;1.52;;;;;;;-145.69;100.00;52388.94;5052988;28;20210;-83
2022/10/18 02:09:20;;;;;;;3.75;1.73;;;;;;;-145.69;100.00;52359.22;5054984;28;20655;-84
2022/10/18 02:11:51;;;;;;;6.78;1.83;;;;;;;-145.69;100.00;52377.06;5056932;28;20440;-84
2022/10/18 02:14:20;;;;;;;6.22;1.58;;;;;;;-145.69;100.00;52410.72;5057164;28;20199;-84
2022/10/18 02:16:51;;;;;;;5.90;1.70;;;;;;;-145.69;100.00;52365.16;5057058;28;20538;-83
2022/10/18 02:19:25;;;;;;;4.47;1.50;;;;;;;-145.69;100.00;52390.91;5056551;28;20259;-83
2022/10/18 02:21:55;;;;;;;11.68;1.92;;;;;;;-145.69;100.00;52396.84;5055635;28;20202;-82
2022/10/18 02:24:26;;;;;;;3.38;1.45;;;;;;;-145.69;100.00;52404.78;5056637;28;20203;-83
2022/10/18 02:26:52;;;;;;;3.67;1.40;;;;;;;-145.69;100.00;52388.94;5055896;28;20659;-83
2022/10/18 02:29:19;;;;;;;3.58;1.70;;;;;;;-145.69;100.00;52412.69;5055616;28;20730;-83
2022/10/18 02:31:53;;;;;;;7.72;1.50;;;;;;;-145.69;100.00;52412.69;5056419;28;20204;-82
2022/10/18 02:34:22;;;;;;;4.38;1.50;;;;;;;-145.69;100.00;52424.59;5056136;28;20683;-82
2022/10/18 02:36:53;;;;;;;4.35;1.50;;;;;;;-145.69;100.00;52404.78;5055673;28;20562;-82
2022/10/18 02:39:23;;;;;;;6.07;1.70;;;;;;;-145.69;100.00;52396.84;5056089;28;20199;-82
2022/10/18 02:41:50;;;;;;;4.10;1.52;;;;;;;-145.69;100.00;52388.94;5056073;28;20207;-83
2022/10/18 02:44:16;;;;;;;7.55;2.03;;;;;;;-145.69;100.00;52392.91;5055779;28;20676;-82
2022/10/18 02:46:43;;;;;;;7.53;1.60;;;;;;;-145.69;100.00;52363.19;5055106;28;20680;-82
2022/10/18 02:49:11;;;;;;;10.90;1.88;;;;;;;-145.69;100.00;52369.13;5056071;28;20201;-82
2022/10/18 02:51:37;;;;;;;3.45;1.35;;;;;;;-145.69;100.00;52381.00;5047494;28;20192;-82
2022/10/18 02:54:04;;;;;;;7.35;1.60;;;;;;;-145.69;100.00;52388.94;5055587;28;20211;-84
2022/10/18 02:56:31;;;;;;;5.70;1.85;;;;;;;-145.69;100.00;52392.91;5055625;28;20211;-83
2022/10/18 02:58:57;;;;;;;3.25;1.80;;;;;;;-145.69;100.00;52373.09;5055761;28;20235;-84
2022/10/18 03:01:24;;;;;;;7.00;1.92;;;;;;;-145.69;100.00;52381.00;5056009;28;20203;-84
2022/10/18 03:03:51;;;;;;;5.10;1.63;;;;;;;-145.69;100.00;52377.06;5055825;28;20294;-84
2022/10/18 03:06:19;;;;;;;4.03;1.70;;;;;;;-145.69;100.00;52383.00;5056263;28;20207;-84
2022/10/18 03:08:45;;;;;;;2.97;1.70;;;;;;;-145.69;100.00;52371.13;5056041;28;20210;-84
2022/10/18 03:11:12;;;;;;;10.55;1.95;;;;;;;-145.69;100.00;52379.03;5056096;28;20200;-84
2022/10/18 03:13:38;;;;;;;14.02;2.95;;;;;;;-145.69;100.00;52384.97;5055415;28;20203;-84
2022/10/18 03:16:05;;;;;;;6.07;1.90;;;;;;;-145.69;100.00;52369.13;5055847;28;20550;-84
2022/10/18 03:18:32;;;;;;;7.97;1.70;;;;;;;-145.69;100.00;52383.00;5055653;28;20257;-84
2022/10/18 03:20:58;;;;;;;7.70;1.63;;;;;;;-145.69;100.00;52381.00;5044917;28;20679;-84
2022/10/18 03:23:26;;;;;;;6.45;1.70;;;;;;;-145.69;100.00;52396.84;5035371;28;20207;-84
2022/10/18 03:25:53;;;;;;;7.13;1.70;;;;;;;-145.69;100.00;52383.00;5035584;28;20749;-84
2022/10/18 03:28:19;;;;;;;5.95;1.88;;;;;;;-145.69;100.00;52394.88;5035135;28;20586;-83
2022/10/18 03:30:46;;;;;;;4.13;1.98;;;;;;;-145.69;100.00;52396.84;5035156;28;20211;-82
2022/10/18 03:33:12;;;;;;;2.83;1.92;;;;;;;-145.69;100.00;52412.69;5034624;28;20562;-81
2022/10/18 03:35:39;;;;;;;5.70;1.55;;;;;;;-145.69;100.00;52404.78;5034866;28;20566;-82
2022/10/18 03:38:05;;;;;;;6.75;2.08;;;;;;;-145.69;100.00;52396.84;5035032;28;20617;-82
2022/10/18 03:40:33;;;;;;;9.50;1.90;;;;;;;-145.69;100.00;52386.97;5034991;28;20594;-82
2022/10/18 03:43:00;;;;;;;7.68;1.95;;;;;;;-145.69;100.00;52371.13;5034489;28;20286;-81
2022/10/18 03:45:26;;;;;;;7.03;1.88;;;;;;;-145.69;100.00;52381.00;5034922;28;20206;-83
2022/10/18 03:47:53;;;;;;;3.80;1.63;;;;;;;-145.69;100.00;52396.84;5034986;28;20211;-82
2022/10/18 03:50:19;;;;;;;11.52;2.33;;;;;;;-145.69;100.00;52386.97;5033663;28;20449;-82
2022/10/18 03:52:46;;;;;;;9.35;2.35;;;;;;;-145.69;100.00;52392.91;5034659;28;20222;-82
2022/10/18 03:55:13;;;;;;;5.32;2.22;;;;;;;-145.69;100.00;52432.50;5034819;28;20200;-83
2022/10/18 03:57:40;;;;;;;4.97;1.85;;;;;;;-145.69;100.00;52388.94;5037411;28;20238;-84
2022/10/18 04:00:08;;;;;;;3.30;1.70;;;;;;;-145.69;100.00;52404.78;5035151;28;20207;-83
2022/10/18 04:02:35;;;;;;;16.15;1.88;;;;;;;-145.69;100.00;52424.59;5034343;28;20207;-83
2022/10/18 04:05:01;;;;;;;11.55;2.30;;;;;;;-145.69;100.00;52412.69;5034720;28;20211;-83
2022/10/18 04:07:27;;;;;;;3.28;1.67;;;;;;;-145.69;100.00;52386.97;5034082;28;20651;-83
2022/10/18 04:09:54;;;;;;;3.67;2.35;;;;;;;-145.69;100.00;52386.97;5034379;28;20204;-82
2022/10/18 04:12:20;;;;;;;4.82;1.80;;;;;;;-145.69;100.00;52384.97;5034545;28;20200;-83
2022/10/18 04:14:48;;;;;;;11.45;2.05;;;;;;;-145.69;100.00;52398.84;5017154;28;20281;-83
2022/10/18 04:17:15;;;;;;;7.35;2.20;;;;;;;-145.69;100.00;52402.78;5034444;28;20655;-83
2022/10/18 04:19:41;;;;;;;7.00;2.55;;;;;;;-145.69;100.00;52440.44;5048541;28;20223;-84
2022/10/18 04:22:08;;;;;;;9.68;2.28;;;;;;;-145.69;100.00;52390.91;5054140;28;20231;-83
2022/10/18 04:24:34;;;;;;;10.60;2.22;;;;;;;-145.69;100.00;52406.75;5054274;28;20203;-84
2022/10/18 04:27:01;;;;;;;11.77;2.63;;;;;;;-145.69;100.00;52373.09;5054885;28;20623;-84
2022/10/18 04:29:27;;;;;;;9.50;2.47;;;;;;;-145.69;100.00;52388.94;5054509;28;20553;-84
2022/10/18 04:31:55;;;;;;;6.95;2.50;;;;;;;-145.69;100.00;52386.97;5053893;28;20226;-83
2022/10/18 04:34:22;;;;;;;4.68;2.28;;;;;;;-145.69;100.00;52367.16;5053735;28;20203;-83
2022/10/18 04:36:48;;;;;;;3.42;2.10;;;;;;;-145.69;100.00;52418.63;5053889;28;20207;-83
2022/10/18 04:39:15;;;;;;;4.25;2.05;;;;;;;-145.69;100.00;52386.97;5053929;28;20237;-84
2022/10/18 04:41:41;;;;;;;9.30;2.63;;;;;;;-145.69;100.00;52384.97;5054081;28;20245;-84
2022/10/18 04:44:12;;;;;;;6.30;2.40;;;;;;;-145.69;100.00;52386.97;5054139;28;20207;-83
2022/10/18 04:46:38;;;;;;;10.77;2.08;;;;;;;-145.69;100.00;52412.69;5054177;28;20211;-82
2022/10/18 04:49:06;;;;;;;14.15;2.22;;;;;;;-145.69;100.00;52408.75;5045209;28;20192;-83
2022/10/18 04:51:32;;;;;;;6.22;2.10;;;;;;;-145.69;100.00;52392.91;5033337;28;20643;-83
2022/10/18 04:53:59;;;;;;;6.93;2.28;;;;;;;-145.69;100.00;52408.75;5033888;28;20200;-83
2022/10/18 04:56:25;;;;;;;6.80;2.67;;;;;;;-145.69;100.00;52396.84;5033995;28;20227;-83
2022/10/18 04:58:52;;;;;;;6.00;2.38;;;;;;;-145.69;100.00;52388.94;5033765;28;20631;-84
2022/10/18 05:01:18;;;;;;;7.70;3.03;;;;;;;-145.69;100.00;52408.75;5033899;28;20204;-83
2022/10/18 05:03:45;;;;;;;7.50;2.30;;;;;;;-145.69;100.00;52398.84;5033767;28;20204;-83
2022/10/18 05:06:13;;;;;;;4.55;2.70;;;;;;;-145.69;100.00;52412.69;5034037;28;20199;-84
2022/10/18 05:08:39;;;;;;;9.20;3.03;;;;;;;-145.69;100.00;52396.84;5033687;28;20224;-83
2022/10/18 05:11:09;;;;;;;6.27;2.80;;;;;;;-145.69;100.00;52373.09;5032515;28;20927;-83
2022/10/18 05:13:37;;;;;;;10.27;2.70;;;;;;;-145.69;100.00;52408.75;5033575;28;20209;-84
2022/10/18 05:16:03;;;;;;;8.77;3.00;;;;;;;-145.69;100.00;52381.00;5033601;28;20200;-83
2022/10/18 05:18:30;;;;;;;7.25;2.80;;;;;;;-145.69;100.00;52388.94;5039025;28;20231;-83
2022/10/18 05:20:57;;;;;;;11.35;2.80;;;;;;;-145.69;100.00;52392.91;5053640;28;20672;-84
2022/10/18 05:23:25;;;;;;;6.18;2.30;;;;;;;-145.69;100.00;52434.47;5057610;28;20196;-85
2022/10/18 05:25:52;;;;;;;10.35;2.92;;;;;;;-145.69;100.00;52404.78;5056023;28;20665;-84
2022/10/18 05:28:18;;;;;;;6.88;2.45;;;;;;;-145.69;100.00;52388.94;5055068;28;20235;-84
2022/10/18 05:30:45;;;;;;;9.48;2.75;;;;;;;-145.69;100.00;52377.06;5055427;28;20195;-84
2022/10/18 05:33:11;;;;;;;7.00;2.55;;;;;;;-145.69;100.00;52420.63;5056183;28;20562;-83
2022/10/18 05:35:38;;;;;;;8.63;3.13;;;;;;;-145.69;100.00;52428.53;5053054;28;20199;-83
2022/10/18 05:38:06;;;;;;;14.00;3.00;;;;;;;-145.69;100.00;52422.59;5052850;28;20230;-83
2022/10/18 05:40:34;;;;;;;3.90;2.72;;;;;;;-145.69;100.00;52440.44;5054771;28;20210;-84
2022/10/18 05:43:00;;;;;;;8.05;3.10;;;;;;;-145.69;100.00;52432.50;5055029;28;20443;-83
2022/10/18 05:45:27;;;;;;;5.43;2.85;;;;;;;-145.69;100.00;52394.88;5057255;28;20207;-84
2022/10/18 05:47:54;;;;;;;4.60;2.80;;;;;;;-145.69;100.00;52408.75;5054833;28;20207;-84
2022/10/18 05:50:21;;;;;;;6.50;2.65;;;;;;;-145.69;100.00;52442.41;5038171;28;20196;-83
2022/10/18 05:52:47;;;;;;;7.07;3.10;;;;;;;-145.69;100.00;52444.38;5033394;28;20441;-83
2022/10/18 05:55:14;;;;;;;6.30;2.53;;;;;;;-145.69;100.00;52430.53;5034959;28;20200;-83
2022/10/18 05:57:42;;;;;;;3.53;2.10;;;;;;;-145.69;100.00;52434.47;5034053;28;20662;-83
2022/10/18 06:00:10;;;;;;;8.85;2.67;;;;;;;-145.69;100.00;52412.69;5033553;28;20204;-83
2022/10/18 06:02:36;;;;;;;5.22;2.97;;;;;;;-145.69;100.00;52452.31;5033540;28;20204;-84
2022/10/18 06:05:03;;;;;;;17.10;4.35;;;;;;;-145.69;100.00;52448.34;5044805;28;20650;-83
2022/10/18 06:07:29;;;;;;;7.28;3.60;;;;;;;-145.69;100.00;52398.84;5054666;28;20207;-84
2022/10/18 06:09:56;;;;;;;8.98;3.72;;;;;;;-145.69;100.00;52452.31;5054572;28;20207;-84
2022/10/18 06:12:22;;;;;;;19.55;3.35;;;;;;;-145.69;100.00;52448.34;5054305;28;20218;-83
2022/10/18 06:14:51;;;;;;;9.63;3.33;;;;;;;-145.69;100.00;52462.22;5053721;28;20212;-84
2022/10/18 06:17:17;;;;;;;7.85;3.10;;;;;;;-145.69;100.00;52424.59;5054012;28;20282;-85
2022/10/18 06:19:44;;;;;;;6.35;3.25;;;;;;;-145.69;100.00;52440.44;5036057;28;20330;-84
2022/10/18 06:22:11;;;;;;;5.90;2.97;;;;;;;-145.69;100.00;52448.34;5036595;28;20223;-84
2022/10/18 06:24:37;;;;;;;13.77;3.35;;;;;;;-145.69;100.00;52412.69;5036100;28;20609;-84
2022/10/18 06:27:07;;;;;;;7.90;3.63;;;;;;;-145.69;100.00;52416.66;5035349;28;20211;-84
2022/10/18 06:29:34;;;;;;;5.57;3.15;;;;;;;-145.69;100.00;52396.84;5034059;28;20204;-83
2022/10/18 06:32:02;;;;;;;6.10;2.80;;;;;;;-145.69;100.00;52416.66;5034540;28;20196;-84
2022/10/18 06:34:28;;;;;;;6.57;2.88;;;;;;;-145.69;100.00;52416.66;5033138;28;20196;-83
2022/10/18 06:36:55;;;;;;;7.57;3.15;;;;;;;-145.69;100.00;52404.78;5033161;28;20567;-83
2022/10/18 06:39:22;;;;;;;5.25;3.05;;;;;;;-145.69;100.00;52398.84;5032434;28;20593;-82
2022/10/18 06:41:48;;;;;;;10.20;3.05;;;;;;;-145.69;100.00;52384.97;5032411;28;20215;-83
2022/10/18 06:44:16;;;;;;;4.97;2.75;;;;;;;-145.69;100.00;52359.22;5032296;28;20204;-83
2022/10/18 06:46:43;;;;;;;8.98;3.08;;;;;;;-145.69;100.00;52373.09;5033492;28;20622;-84
2022/10/18 06:49:13;;;;;;;19.10;3.20;;;;;;;-145.69;100.00;52386.97;5046139;28;20199;-84
2022/10/18 06:51:40;;;;;;;6.03;3.00;;;;;;;-145.69;100.00;52384.97;5053211;28;20230;-84
2022/10/18 06:54:06;;;;;;;8.40;2.92;;;;;;;-145.69;100.00;52384.97;5052756;28;20669;-84
2022/10/18 06:56:33;;;;;;;6.75;2.35;;;;;;;-145.69;100.00;52341.41;5055061;28;20205;-83
2022/10/18 06:58:59;;;;;;;6.45;2.65;;;;;;;-145.69;100.00;52373.09;5056903;28;20239;-84
2022/10/18 07:01:27;;;;;;;4.20;2.85;;;;;;;-145.69;100.00;52383.00;5054874;28;20614;-83
2022/10/18 07:03:55;;;;;;;5.03;2.45;;;;;;;-145.69;100.00;52394.88;5036857;28;20204;-84
2022/10/18 07:06:23;;;;;;;4.47;2.58;;;;;;;-145.69;100.00;52371.13;5036631;28;20650;-84
2022/10/18 07:08:51;;;;;;;3.55;2.72;;;;;;;-145.69;100.00;52369.13;5037032;28;20551;-84
2022/10/18 07:11:20;;;;;;;6.72;2.50;;;;;;;-145.69;100.00;52371.13;5036254;28;20761;-84
2022/10/18 07:13:46;;;;;;;6.68;2.80;;;;;;;-145.69;100.00;52359.22;5037139;28;20681;-84
2022/10/18 07:16:15;;;;;;;8.18;2.50;;;;;;;-145.69;100.00;52345.38;5036527;28;20204;-84
2022/10/18 07:18:44;;;;;;;3.97;2.30;;;;;;;-145.69;100.00;52351.31;5034975;28;20457;-84
2022/10/18 07:21:12;;;;;;;4.93;2.30;;;;;;;-145.69;100.00;52355.28;5036761;28;20201;-84
2022/10/18 07:23:42;;;;;;;5.40;2.08;;;;;;;-145.69;100.00;52361.22;5036860;28;20204;-83
2022/10/18 07:26:13;;;;;;;4.30;2.20;;;;;;;-145.69;100.00;52345.38;5048564;28;20204;-85
2022/10/18 07:28:40;;;;;;;6.13;2.08;;;;;;;-145.69;100.00;52369.13;5058857;28;20277;-85
2022/10/18 07:31:08;;;;;;;3.35;2.13;;;;;;;-145.69;100.00;52329.53;5059762;28;20202;-86
2022/10/18 07:33:36;;;;;;;5.38;2.00;;;;;;;-145.69;100.00;52357.25;5057292;28;20209;-85
2022/10/18 07:36:04;;;;;;;3.35;1.95;;;;;;;-145.69;100.00;52353.28;5055864;28;20286;-85
2022/10/18 07:38:31;;;;;;;5.10;2.25;;;;;;;-145.69;100.00;52329.53;5056820;28;20215;-85
2022/10/18 07:41:00;;;;;;;5.13;2.08;;;;;;;-145.69;100.00;52345.38;5057799;28;20199;-84
2022/10/18 07:43:27;;;;;;;4.43;2.08;;;;;;;-145.69;100.00;52313.69;5055695;28;20235;-82
2022/10/18 07:45:55;;;;;;;5.32;2.20;;;;;;;-145.69;100.00;52341.41;5057175;28;20200;-82
2022/10/18 07:48:21;;;;;;;3.35;1.88;;;;;;;-145.69;100.00;52321.59;5056770;28;20229;-82
2022/10/18 07:50:48;;;;;;;5.40;2.60;;;;;;;-145.69;100.00;52333.47;5055318;28;20658;-83
2022/10/18 07:53:15;;;;;;;5.75;2.40;;;;;;;-145.69;100.00;52317.66;5055471;28;20222;-83
2022/10/18 07:55:42;;;;;;;7.80;2.28;;;;;;;-145.69;100.00;52329.53;5054564;28;20202;-82
2022/10/18 07:58:10;;;;;;;6.25;2.20;;;;;;;-145.69;100.00;52309.72;5054601;28;20234;-83
2022/10/18 08:00:36;;;;;;;3.40;1.90;;;;;;;-145.69;100.00;52315.66;5053853;28;20502;-82
2022/10/18 08:03:03;;;;;;;3.88;2.40;;;;;;;-145.69;100.00;52321.59;5056310;28;20287;-81
2022/10/18 08:05:29;;;;;;;8.43;2.08;;;;;;;-145.69;100.00;52321.59;5050387;28;20323;-84
2022/10/18 08:07:56;;;;;;;7.13;2.13;;;;;;;-145.69;100.00;52317.66;5054261;28;20559;-82
2022/10/18 08:10:23;;;;;;;5.70;1.90;;;;;;;-145.69;99.20;52355.28;5054413;28;20294;-81
2022/10/18 08:12:50;;;;;;;3.90;1.83;;;;;;;-145.69;99.62;52301.81;5058308;28;20200;-80
2022/10/18 08:15:19;;;;;;;6.32;2.08;;;;;;;-145.69;99.34;52301.81;5055994;28;20203;-81
2022/10/18 08:17:46;;;;;;;7.55;2.28;;;;;;;-145.69;98.67;52256.25;5053553;28;20196;-80
2022/10/18 08:20:12;;;;;;;4.13;2.05;;;;;;;-145.69;96.94;52258.22;5058027;28;20216;-84
2022/10/18 08:22:39;;;;;;;8.50;2.60;;;;;;;-145.69;96.84;52282.00;5057588;28;20242;-83
2022/10/18 08:25:06;;;;;;;6.65;2.28;;;;;;;-145.69;95.37;52297.84;5056549;28;20203;-84
2022/10/18 08:27:33;;;;;;;7.85;2.22;;;;;;;-145.69;93.87;52285.97;5056033;28;20238;-83
2022/10/18 08:30:00;;;;;;;7.60;1.92;;;;;;;-145.69;95.77;52303.78;5055581;28;20210;-83
2022/10/18 08:32:28;;;;;;;6.63;2.08;;;;;;;-145.69;94.03;52317.66;5055693;28;20235;-83
2022/10/18 08:34:55;;;;;;;6.13;1.88;;;;;;;-145.69;96.01;52301.81;5047029;28;20207;-83
2022/10/18 08:37:21;;;;;;;5.70;2.00;;;;;;;-145.69;94.05;52280.00;5036665;28;20223;-83
2022/10/18 08:39:48;;;;;;;5.43;2.10;;;;;;;-145.69;94.41;52282.00;5038123;28;20461;-83
2022/10/18 08:42:51;;;;;;;4.22;1.70;;;;;;;-145.69;95.78;52268.13;5035136;28;20291;-83
2022/10/18 08:45:18;;;;;;;7.05;2.00;;;;;;;-145.69;95.15;52268.13;5034179;28;20203;-83
2022/10/18 08:47:50;;;;;;;8.13;1.98;;;;;;;-145.69;92.15;52272.09;5034214;28;20651;-83
2022/10/18 08:50:20;;;;;;;9.75;2.28;;;;;;;-145.69;92.90;52264.16;5034177;28;20200;-83
2022/10/18 08:52:53;;;;;;;8.25;2.00;;;;;;;-145.69;92.37;52262.19;5034121;28;20200;-82
2022/10/18 08:55:24;;;;;;;6.22;2.00;;;;;;;-145.69;87.14;52264.16;5033751;28;20717;-82
2022/10/18 08:57:51;;;;;;;8.27;2.15;;;;;;;-145.69;89.94;52262.19;5033900;28;20623;-83
2022/10/18 09:00:20;;;;;;;6.30;1.80;;;;;;;-145.69;88.02;52266.16;5033985;28;20224;-85
2022/10/18 09:03:00;;;;;;;13.68;1.92;;;;;;;-145.69;84.05;52254.28;5033713;28;20228;-83
2022/10/18 09:05:36;;;;;;;10.02;2.15;;;;;;;-145.69;86.31;52242.38;5046395;28;20195;-82
2022/10/18 09:08:27;;;;;;;11.48;2.15;;;;;;;-145.69;81.68;52234.47;5052759;28;20211;-82
2022/10/18 09:11:07;;;;;;;13.65;1.92;;;;;;;-145.69;84.21;52270.13;5053290;28;20204;-83
2022/10/18 09:14:02;;;;;;;12.07;2.17;;;;;;;-145.69;83.36;52266.16;5053860;28;20282;-82
2022/10/18 09:16:37;;;;;;;5.72;1.88;;;;;;;-145.69;86.00;52206.75;5042539;28;20226;-81
2022/10/18 09:19:18;;;;;;;9.00;2.03;;;;;;;-145.69;84.33;52240.41;5051888;28;20578;-82
2022/10/18 09:21:51;;;;;;;6.18;1.77;;;;;;;-145.69;86.19;52242.38;5052901;28;20219;-81
2022/10/18 09:24:25;;;;;;;5.82;1.63;;;;;;;-145.69;86.29;52250.31;5053070;28;20203;-81
2022/10/18 09:26:58;;;;;;;7.28;1.73;;;;;;;-145.69;85.92;52234.47;5052567;28;20741;-81
2022/10/18 09:29:51;;;;;;;6.03;1.60;;;;;;;-145.69;87.50;52246.34;5053392;28;20566;-81
2022/10/18 09:32:29;;;;;;;6.03;1.90;;;;;;;-145.69;85.63;52248.34;5052406;28;20707;-82
2022/10/18 09:35:00;;;;;;;6.40;2.17;;;;;;;-145.69;86.73;52278.03;5044081;28;20199;-81
2022/10/18 09:37:30;;;;;;;5.60;2.33;;;;;;;-145.69;87.96;52278.03;5053083;28;20206;-81
2022/10/18 09:40:04;;;;;;;6.93;1.88;;;;;;;-145.69;87.04;52252.28;5052192;28;20226;-81
2022/10/18 09:42:36;;;;;;;4.30;1.60;;;;;;;-145.69;85.91;52224.56;5052769;28;20226;-81
2022/10/18 09:45:13;;;;;;;7.65;1.40;;;;;;;-145.69;84.05;52242.38;5052688;28;20214;-81
2022/10/18 09:47:46;;;;;;;5.45;1.67;;;;;;;-145.69;85.35;52274.06;5052886;28;20210;-81
2022/10/18 09:50:24;;;;;;;7.82;1.88;;;;;;;-145.69;85.31;52258.22;5052397;28;20207;-80
2022/10/18 09:52:58;;;;;;;5.95;1.73;;;;;;;-145.69;90.84;52254.28;5052647;28;20650;-81
2022/10/18 09:55:31;;;;;;;6.90;1.60;;;;;;;-145.69;86.79;52248.34;5053265;28;20202;-82
2022/10/18 09:58:01;;;;;;;5.22;1.63;;;;;;;-145.69;80.00;52232.50;5052719;28;20204;-82
2022/10/18 10:00:33;;;;;;;6.95;1.60;;;;;;;-145.69;83.54;52242.38;5052868;28;20233;-81
2022/10/18 10:03:01;;;;;;;5.03;1.65;;;;;;;-145.69;84.17;52254.28;5052538;28;20207;-82
2022/10/18 10:05:29;;;;;;;4.45;1.50;;;;;;;-145.69;81.23;52246.34;5037354;28;20667;-81
2022/10/18 10:08:01;;;;;;;5.55;1.60;;;;;;;-145.69;85.29;52234.47;5032282;28;20196;-80
2022/10/18 10:10:29;;;;;;;9.40;1.95;;;;;;;-145.69;79.80;52250.31;5034654;28;20204;-82
2022/10/18 10:13:04;;;;;;;14.50;2.15;;;;;;;-145.69;82.33;52234.47;5032347;28;20196;-80
2022/10/18 10:15:31;;;;;;;11.45;2.00;;;;;;;-145.69;82.38;52256.25;5032485;28;20666;-82
2022/10/18 10:18:01;;;;;;;4.97;1.67;;;;;;;-145.69;84.01;52254.28;5032230;28;20244;-82
2022/10/18 10:20:35;;;;;;;10.40;2.03;;;;;;;-145.69;85.33;52232.50;5032366;28;20239;-81
2022/10/18 10:23:09;;;;;;;4.80;2.13;;;;;;;-145.69;84.80;52214.66;5032331;28;20294;-82
2022/10/18 10:25:37;;;;;;;5.30;1.75;;;;;;;-145.69;82.05;52218.63;5032225;28;20650;-83
2022/10/18 10:28:12;;;;;;;6.82;1.85;;;;;;;-145.69;82.39;52228.53;5032851;28;20204;-81
2022/10/18 10:30:38;;;;;;;6.18;2.05;;;;;;;-145.69;83.76;52222.59;5035117;28;20528;-81
2022/10/18 10:33:06;;;;;;;4.47;1.80;;;;;;;-145.69;83.41;52218.63;5036186;28;20563;-82
2022/10/18 10:35:37;;;;;;;6.85;1.42;;;;;;;-145.69;84.53;52226.53;5053202;28;20222;-82
2022/10/18 10:38:05;;;;;;;9.30;1.70;;;;;;;-145.69;84.73;52240.41;5055051;28;20938;-82
2022/10/18 10:40:34;;;;;;;8.63;1.88;;;;;;;-145.69;84.47;52234.47;5055785;28;20234;-82
2022/10/18 10:43:05;;;;;;;3.97;2.00;;;;;;;-145.69;83.85;52234.47;5055904;28;20216;-82
2022/10/18 10:45:35;;;;;;;7.28;2.10;;;;;;;-145.69;86.78;52252.28;5056243;28;20203;-82
2022/10/18 10:48:13;;;;;;;7.22;1.67;;;;;;;-145.69;89.89;52242.38;5056019;28;20658;-82
2022/10/18 10:50:59;;;;;;;11.48;2.28;;;;;;;-145.69;89.98;52244.38;5056361;28;20326;-83
2022/10/18 10:53:40;;;;;;;5.72;1.85;;;;;;;-145.69;87.33;52242.38;5056519;28;20204;-83
2022/10/18 10:56:16;;;;;;;7.38;1.85;;;;;;;-145.69;86.93;52238.44;5056921;28;20210;-81
2022/10/18 10:58:43;;;;;;;11.85;2.40;;;;;;;-145.69;86.22;52224.56;5056466;28;20203;-82
2022/10/18 11:01:36;;;;;;;8.48;2.00;;;;;;;-145.69;85.63;52256.25;5055703;28;20229;-83
2022/10/18 11:04:23;;;;;;;10.43;1.98;;;;;;;-145.69;84.02;52222.59;5008347;28;20203;-84
2022/10/18 11:06:58;;;;;;;12.57;1.90;;;;;;;-145.69;89.20;52228.53;5055650;28;20203;-83
2022/10/18 11:09:36;;;;;;;6.13;2.33;;;;;;;-145.69;82.82;52230.50;5056086;28;20202;-82
2022/10/18 11:12:12;;;;;;;3.53;1.63;;;;;;;-145.69;86.29;52258.22;5055912;28;20207;-83
2022/10/18 11:14:43;;;;;;;3.30;1.65;;;;;;;-145.69;88.06;52234.47;5055852;28;20203;-83
2022/10/18 11:17:19;;;;;;;5.95;1.80;;;;;;;-145.69;89.59;52230.50;5055748;28;20662;-82
2022/10/18 11:20:02;;;;;;;10.43;2.10;;;;;;;-145.69;89.44;52226.53;5055447;28;20235;-83